createdAt,value
2023-08-02T00:00:43.315Z,60.38
2023-08-02T00:03:30.685Z,60.26
2023-08-02T00:06:00.032Z,60.39
2023-08-02T00:08:27.838Z,60.36
2023-08-02T00:10:55.451Z,60.31
2023-08-02T00:13:22.791Z,60.46
2023-08-02T00:15:52.095Z,60.44
2023-08-02T00:18:19.723Z,60.46
2023-08-02T00:20:48.348Z,60.52
2023-08-02T00:23:15.829Z,60.74
2023-08-02T00:25:43.597Z,60.69
2023-08-02T00:28:11.006Z,60.56
2023-08-02T00:30:46.362Z,60.69
2023-08-02T00:33:14.059Z,60.63
2023-08-02T00:35:45.818Z,60.63
2023-08-02T00:38:14.373Z,60.50
2023-08-02T00:40:42.699Z,60.59
2023-08-02T00:43:10.046Z,60.52
2023-08-02T00:45:38.010Z,60.65
2023-08-02T00:48:05.780Z,60.67
2023-08-02T00:50:36.449Z,60.76
2023-08-02T00:53:04.162Z,60.57
2023-08-02T00:55:31.957Z,60.64
2023-08-02T00:58:00.512Z,61.00
2023-08-02T01:00:29.057Z,60.64
2023-08-02T01:02:56.632Z,60.64
2023-08-02T01:05:29.347Z,60.63
2023-08-02T01:08:02.750Z,60.61
2023-08-02T01:10:34.880Z,60.69
2023-08-02T01:13:07.116Z,60.71
2023-08-02T01:15:35.588Z,60.49
2023-08-02T01:18:03.313Z,60.47
2023-08-02T01:20:30.961Z,60.61
2023-08-02T01:22:58.400Z,60.54
2023-08-02T01:25:29.668Z,60.42
2023-08-02T01:28:03.460Z,60.41
2023-08-02T01:30:37.215Z,60.52
2023-08-02T01:33:05.616Z,60.55
2023-08-02T01:35:34.709Z,60.41
2023-08-02T01:38:02.598Z,60.45
2023-08-02T01:40:30.225Z,60.50
2023-08-02T01:42:57.849Z,60.52
2023-08-02T01:45:25.576Z,60.58
2023-08-02T01:47:53.053Z,60.48
2023-08-02T01:50:20.668Z,60.33
2023-08-02T01:52:50.241Z,60.43
2023-08-02T01:55:19.175Z,60.39
2023-08-02T01:57:46.589Z,60.22
2023-08-02T02:00:14.382Z,60.08
2023-08-02T02:02:41.925Z,60.13
2023-08-02T02:05:09.668Z,60.15
2023-08-02T02:07:37.037Z,60.31
2023-08-02T02:10:04.945Z,60.12
2023-08-02T02:12:32.291Z,60.04
2023-08-02T02:14:59.901Z,59.99
2023-08-02T02:17:27.391Z,60.01
2023-08-02T02:19:55.032Z,60.01
2023-08-02T02:22:22.409Z,60.07
2023-08-02T02:24:50.039Z,60.03
2023-08-02T02:27:17.368Z,60.08
2023-08-02T02:29:45.002Z,59.71
2023-08-02T02:32:12.419Z,59.69
2023-08-02T02:34:40.022Z,59.69
2023-08-02T02:37:07.906Z,59.58
2023-08-02T02:39:35.558Z,59.69
2023-08-02T02:42:03.209Z,59.59
2023-08-02T02:44:42.372Z,59.57
2023-08-02T02:47:11.174Z,59.61
2023-08-02T02:49:38.797Z,59.71
2023-08-02T02:52:06.756Z,59.57
2023-08-02T02:54:34.407Z,59.54
2023-08-02T02:57:02.023Z,59.58
2023-08-02T02:59:29.662Z,59.33
2023-08-02T03:01:57.021Z,59.39
2023-08-02T03:04:24.652Z,59.46
2023-08-02T03:06:52.619Z,59.42
2023-08-02T03:09:20.550Z,59.48
2023-08-02T03:11:47.895Z,59.35
2023-08-02T03:14:15.525Z,59.43
2023-08-02T03:16:45.974Z,59.40
2023-08-02T03:19:14.099Z,59.38
2023-08-02T03:21:41.475Z,59.38
2023-08-02T03:24:09.102Z,59.24
2023-08-02T03:26:36.481Z,59.14
2023-08-02T03:29:04.064Z,59.29
2023-08-02T03:31:31.425Z,59.24
2023-08-02T03:33:59.061Z,59.25
2023-08-02T03:36:26.433Z,59.22
2023-08-02T03:38:54.015Z,59.21
2023-08-02T03:41:21.389Z,59.31
2023-08-02T03:43:49.097Z,59.15
2023-08-02T03:46:16.440Z,59.15
2023-08-02T03:48:44.093Z,59.21
2023-08-02T03:51:11.473Z,59.12
2023-08-02T03:53:39.076Z,59.29
2023-08-02T03:56:06.461Z,59.22
2023-08-02T03:58:34.074Z,59.27
2023-08-02T04:01:01.489Z,59.08
2023-08-02T04:03:29.113Z,59.21
2023-08-02T04:05:56.696Z,59.47
2023-08-02T04:08:23.976Z,59.39
2023-08-02T04:10:51.564Z,59.22
2023-08-02T04:13:18.894Z,59.21
2023-08-02T04:15:49.398Z,59.39
2023-08-02T04:18:16.720Z,59.65
2023-08-02T04:20:44.430Z,59.70
2023-08-02T04:23:11.817Z,59.74
2023-08-02T04:25:39.416Z,59.71
2023-08-02T04:28:07.716Z,59.61
2023-08-02T04:30:35.339Z,59.64
2023-08-02T04:33:02.755Z,59.92
2023-08-02T04:35:30.691Z,59.81
2023-08-02T04:37:58.067Z,59.81
2023-08-02T04:40:25.654Z,59.88
2023-08-02T04:42:55.070Z,59.85
2023-08-02T04:45:22.870Z,60.02
2023-08-02T04:47:50.259Z,59.93
2023-08-02T04:50:18.000Z,59.90
2023-08-02T04:52:45.340Z,59.77
2023-08-02T04:55:12.943Z,59.87
2023-08-02T04:57:40.304Z,59.82
2023-08-02T05:00:08.357Z,59.77
2023-08-02T05:02:37.529Z,59.97
2023-08-02T05:05:05.637Z,59.43
2023-08-02T05:07:34.470Z,59.69
2023-08-02T05:10:05.539Z,59.81
2023-08-02T05:12:39.174Z,59.88
2023-08-02T05:15:07.671Z,59.62
2023-08-02T05:17:35.082Z,59.58
2023-08-02T05:20:02.881Z,59.37
2023-08-02T05:22:32.308Z,59.23
2023-08-02T05:25:00.015Z,59.08
2023-08-02T05:27:27.423Z,58.79
2023-08-02T05:29:55.053Z,58.63
2023-08-02T05:32:22.411Z,58.52
2023-08-02T05:34:50.049Z,58.42
2023-08-02T05:37:18.431Z,58.52
2023-08-02T05:39:46.082Z,58.35
2023-08-02T05:42:13.435Z,58.60
2023-08-02T05:44:41.066Z,58.57
2023-08-02T05:47:08.455Z,58.82
2023-08-02T05:49:36.113Z,58.78
2023-08-02T05:52:03.634Z,58.91
2023-08-02T05:54:31.233Z,59.28
2023-08-02T05:56:58.653Z,59.41
2023-08-02T05:59:29.124Z,59.25
2023-08-02T06:01:56.551Z,59.41
2023-08-02T06:04:24.224Z,59.51
2023-08-02T06:06:51.868Z,59.26
2023-08-02T06:09:19.549Z,59.47
2023-08-02T06:11:46.902Z,59.47
2023-08-02T06:14:14.679Z,59.55
2023-08-02T06:16:42.021Z,59.54
2023-08-02T06:19:09.720Z,59.46
2023-08-02T06:21:37.737Z,59.46
2023-08-02T06:24:05.520Z,59.29
2023-08-02T06:26:33.278Z,59.34
2023-08-02T06:29:01.837Z,59.50
2023-08-02T06:31:29.303Z,59.39
2023-08-02T06:33:56.909Z,59.53
2023-08-02T06:36:24.407Z,59.30
2023-08-02T06:38:52.119Z,59.30
2023-08-02T06:41:19.491Z,59.21
2023-08-02T06:43:47.939Z,59.17
2023-08-02T06:46:15.359Z,59.08
2023-08-02T06:48:43.001Z,59.07
2023-08-02T06:51:13.673Z,58.85
2023-08-02T06:53:41.417Z,59.17
2023-08-02T06:56:16.662Z,59.15
2023-08-02T06:58:45.147Z,59.12
2023-08-02T07:01:20.798Z,58.83
2023-08-02T07:03:49.783Z,59.17
2023-08-02T07:06:19.108Z,59.24
2023-08-02T07:08:47.638Z,59.11
2023-08-02T07:11:26.067Z,59.28
2023-08-02T07:13:59.174Z,59.06
2023-08-02T07:16:26.597Z,59.18
2023-08-02T07:18:54.340Z,59.32
2023-08-02T07:21:21.819Z,58.80
2023-08-02T07:23:49.517Z,59.08
2023-08-02T07:26:16.899Z,58.84
2023-08-02T07:28:44.671Z,58.80
2023-08-02T07:31:13.929Z,58.93
2023-08-02T07:33:41.990Z,58.72
2023-08-02T07:36:17.692Z,58.86
2023-08-02T07:38:46.060Z,58.81
2023-08-02T07:41:14.051Z,58.89
2023-08-02T07:43:41.831Z,59.00
2023-08-02T07:46:20.000Z,58.90
2023-08-02T07:48:48.494Z,58.87
2023-08-02T07:51:15.821Z,58.92
2023-08-02T07:53:43.473Z,58.85
2023-08-02T07:56:10.862Z,58.79
2023-08-02T07:58:38.572Z,58.73
2023-08-02T08:01:10.670Z,58.61
2023-08-02T08:03:38.871Z,58.75
2023-08-02T08:06:14.518Z,58.50
2023-08-02T08:08:43.450Z,58.35
2023-08-02T08:11:10.959Z,58.19
2023-08-02T08:13:38.756Z,58.35
2023-08-02T08:16:06.341Z,58.14
2023-08-02T08:18:34.422Z,58.21
2023-08-02T08:21:03.068Z,57.82
2023-08-02T08:23:31.796Z,57.99
2023-08-02T08:25:59.172Z,57.95
2023-08-02T08:28:27.082Z,57.66
2023-08-02T08:31:05.443Z,57.62
2023-08-02T08:33:33.582Z,57.55
2023-08-02T08:36:01.026Z,57.57
2023-08-02T08:38:28.737Z,57.54
2023-08-02T08:40:57.277Z,57.27
2023-08-02T08:43:29.499Z,57.34
2023-08-02T08:45:58.216Z,57.06
2023-08-02T08:48:27.936Z,57.15
2023-08-02T08:50:57.170Z,57.21
2023-08-02T08:53:35.689Z,57.08
2023-08-02T08:56:05.655Z,56.48
2023-08-02T08:58:34.767Z,56.81
2023-08-02T09:01:04.965Z,56.73
2023-08-02T09:03:36.134Z,56.53
2023-08-02T09:06:05.285Z,56.71
2023-08-02T09:08:45.187Z,56.83
2023-08-02T09:11:13.049Z,57.16
2023-08-02T09:13:40.818Z,57.00
2023-08-02T09:16:09.769Z,56.75
2023-08-02T09:18:44.946Z,56.82
2023-08-02T09:21:16.027Z,56.84
2023-08-02T09:23:57.392Z,56.55
2023-08-02T09:26:25.039Z,56.38
2023-08-02T09:29:04.442Z,56.32
2023-08-02T09:31:34.285Z,56.32
2023-08-02T09:34:02.415Z,55.99
2023-08-02T09:36:31.767Z,55.90
2023-08-02T09:39:16.854Z,55.99
2023-08-02T09:41:59.163Z,56.04
2023-08-02T09:44:29.732Z,56.01
2023-08-02T09:47:08.825Z,55.96
2023-08-02T09:49:36.632Z,55.37
2023-08-02T09:52:04.252Z,54.77
2023-08-02T09:54:32.346Z,55.02
2023-08-02T09:57:02.506Z,54.64
2023-08-02T09:59:31.486Z,54.37
2023-08-02T10:02:00.192Z,54.88
2023-08-02T10:04:28.675Z,54.72
2023-08-02T10:07:09.356Z,54.44
2023-08-02T10:09:38.143Z,54.05
2023-08-02T10:12:12.591Z,54.52
2023-08-02T10:14:40.520Z,53.70
2023-08-02T10:17:08.656Z,53.69
2023-08-02T10:19:36.821Z,53.69
2023-08-02T10:22:05.574Z,53.94
2023-08-02T10:24:33.603Z,53.79
2023-08-02T10:27:07.510Z,53.68
2023-08-02T10:29:36.254Z,53.55
2023-08-02T10:32:13.864Z,53.29
2023-08-02T10:34:41.597Z,53.58
2023-08-02T10:37:09.106Z,53.20
2023-08-02T10:39:49.049Z,53.23
2023-08-02T10:42:18.819Z,53.20
2023-08-02T10:44:56.237Z,53.18
2023-08-02T10:47:27.326Z,52.12
2023-08-02T10:49:56.220Z,51.88
2023-08-02T10:52:26.588Z,52.14
2023-08-02T10:55:06.420Z,52.35
2023-08-02T10:57:33.877Z,52.25
2023-08-02T11:00:13.135Z,51.89
2023-08-02T11:02:50.958Z,52.04
2023-08-02T11:05:41.518Z,51.81
2023-08-02T11:08:09.505Z,52.07
2023-08-02T11:10:53.870Z,52.40
2023-08-02T11:13:22.503Z,52.30
2023-08-02T11:16:06.347Z,51.63
2023-08-02T11:18:38.175Z,51.17
2023-08-02T11:21:10.813Z,51.55
2023-08-02T11:23:39.479Z,50.45
2023-08-02T11:26:26.698Z,51.06
2023-08-02T11:28:54.903Z,51.06
2023-08-02T11:31:27.369Z,51.33
2023-08-02T11:33:54.923Z,51.12
2023-08-02T11:36:23.489Z,51.17
2023-08-02T11:38:51.061Z,51.17
2023-08-02T11:41:23.046Z,51.31
2023-08-02T11:43:51.142Z,51.09
2023-08-02T11:46:26.193Z,50.83
2023-08-02T11:48:55.191Z,50.41
2023-08-02T11:51:23.364Z,50.63
2023-08-02T11:54:01.069Z,50.65
2023-08-02T11:56:29.527Z,49.23
2023-08-02T11:58:57.337Z,49.63
2023-08-02T12:01:25.659Z,50.03
2023-08-02T12:04:00.100Z,50.29
2023-08-02T12:06:44.501Z,49.75
2023-08-02T12:09:12.137Z,50.13
2023-08-02T12:11:39.914Z,49.75
2023-08-02T12:14:07.501Z,49.57
2023-08-02T12:16:44.044Z,49.03
2023-08-02T12:19:12.286Z,49.38
2023-08-02T12:21:40.242Z,49.10
2023-08-02T12:24:17.706Z,49.59
2023-08-02T12:26:46.192Z,49.17
2023-08-02T12:29:23.295Z,48.90
2023-08-02T12:31:54.542Z,49.24
2023-08-02T12:34:26.820Z,49.34
2023-08-02T12:36:55.493Z,49.53
2023-08-02T12:39:23.702Z,49.38
2023-08-02T12:41:51.631Z,49.54
2023-08-02T12:44:19.022Z,48.83
2023-08-02T12:46:46.681Z,48.99
2023-08-02T12:49:14.110Z,49.33
2023-08-02T12:51:41.684Z,48.46
2023-08-02T12:54:09.071Z,48.80
2023-08-02T12:56:36.724Z,48.87
2023-08-02T12:59:04.058Z,48.51
2023-08-02T13:01:33.088Z,48.98
2023-08-02T13:04:02.127Z,49.00
2023-08-02T13:06:29.938Z,48.51
2023-08-02T13:08:57.377Z,48.02
2023-08-02T13:11:25.144Z,48.18
2023-08-02T13:13:52.509Z,46.98
2023-08-02T13:16:20.138Z,46.91
2023-08-02T13:18:47.565Z,47.50
2023-08-02T13:21:15.215Z,47.60
2023-08-02T13:23:42.700Z,47.52
2023-08-02T13:26:10.307Z,47.48
2023-08-02T13:28:38.092Z,45.97
2023-08-02T13:31:05.750Z,46.11
2023-08-02T13:33:33.113Z,46.38
2023-08-02T13:36:00.686Z,46.84
2023-08-02T13:38:28.128Z,46.77
2023-08-02T13:40:56.642Z,46.47
2023-08-02T13:43:26.406Z,46.71
2023-08-02T13:45:54.140Z,46.46
2023-08-02T13:48:21.653Z,45.80
2023-08-02T13:50:50.094Z,45.77
2023-08-02T13:53:17.449Z,46.02
2023-08-02T13:55:45.060Z,46.29
2023-08-02T13:58:13.668Z,46.14
2023-08-02T14:00:41.262Z,46.02
2023-08-02T14:03:08.819Z,46.31
2023-08-02T14:05:36.945Z,46.41
2023-08-02T14:08:04.561Z,46.03
2023-08-02T14:10:32.190Z,45.63
2023-08-02T14:12:59.881Z,45.19
2023-08-02T14:15:27.580Z,45.88
2023-08-02T14:17:54.950Z,45.67
2023-08-02T14:20:22.540Z,45.24
2023-08-02T14:22:49.919Z,45.05
2023-08-02T14:25:17.535Z,43.89
2023-08-02T14:27:44.888Z,44.88
2023-08-02T14:30:12.619Z,44.29
2023-08-02T14:32:40.299Z,44.07
2023-08-02T14:35:08.183Z,44.60
2023-08-02T14:37:35.520Z,44.37
2023-08-02T14:40:03.134Z,44.42
2023-08-02T14:42:30.481Z,44.57
2023-08-02T14:44:58.091Z,44.27
2023-08-02T14:47:25.441Z,44.57
2023-08-02T14:49:53.079Z,44.24
2023-08-02T14:52:20.410Z,44.57
2023-08-02T14:54:48.210Z,44.48
2023-08-02T14:57:15.600Z,44.77
2023-08-02T14:59:43.287Z,44.37
2023-08-02T15:02:10.964Z,44.03
2023-08-02T15:04:38.627Z,43.84
2023-08-02T15:07:06.016Z,43.88
2023-08-02T15:09:33.627Z,44.10
2023-08-02T15:12:01.243Z,44.21
2023-08-02T15:14:28.844Z,44.31
2023-08-02T15:16:57.000Z,44.15
2023-08-02T15:19:25.008Z,44.09
2023-08-02T15:21:52.445Z,44.10
2023-08-02T15:24:20.118Z,44.05
2023-08-02T15:26:47.472Z,44.27
2023-08-02T15:29:15.170Z,44.31
2023-08-02T15:31:44.926Z,44.31
2023-08-02T15:34:12.604Z,44.41
2023-08-02T15:36:40.000Z,44.54
2023-08-02T15:39:07.893Z,44.28
2023-08-02T15:41:35.272Z,44.49
2023-08-02T15:44:03.780Z,44.48
2023-08-02T15:46:31.504Z,44.57
2023-08-02T15:48:59.110Z,44.32
2023-08-02T15:51:26.589Z,44.45
2023-08-02T15:53:54.207Z,43.79
2023-08-02T15:56:21.648Z,44.09
2023-08-02T15:58:49.250Z,44.19
2023-08-02T16:01:16.661Z,44.29
2023-08-02T16:03:44.340Z,44.01
2023-08-02T16:06:12.084Z,43.69
2023-08-02T16:08:39.908Z,44.20
2023-08-02T16:11:07.750Z,44.16
2023-08-02T16:13:35.351Z,43.70
2023-08-02T16:16:02.782Z,44.07
2023-08-02T16:18:30.430Z,44.12
2023-08-02T16:20:57.863Z,44.54
2023-08-02T16:23:25.482Z,44.31
2023-08-02T16:25:52.935Z,44.19
2023-08-02T16:28:20.587Z,44.18
2023-08-02T16:30:47.949Z,44.49
2023-08-02T16:33:16.275Z,44.45
2023-08-02T16:35:45.404Z,44.64
2023-08-02T16:38:15.978Z,44.59
2023-08-02T16:40:46.653Z,44.71
2023-08-02T16:43:14.318Z,45.19
2023-08-02T16:45:41.823Z,45.03
2023-08-02T16:48:09.517Z,44.79
2023-08-02T16:50:37.703Z,45.00
2023-08-02T16:53:05.339Z,45.07
2023-08-02T16:55:32.752Z,45.52
2023-08-02T16:58:00.546Z,45.21
2023-08-02T17:00:27.945Z,45.19
2023-08-02T17:02:55.674Z,45.12
2023-08-02T17:05:23.227Z,45.16
2023-08-02T17:07:51.412Z,45.15
2023-08-02T17:10:18.745Z,45.18
2023-08-02T17:12:46.380Z,45.34
2023-08-02T17:15:13.731Z,45.24
2023-08-02T17:17:41.351Z,45.97
2023-08-02T17:20:11.123Z,45.99
2023-08-02T17:22:38.764Z,45.82
2023-08-02T17:25:06.229Z,46.13
2023-08-02T17:27:33.872Z,46.30
2023-08-02T17:30:01.218Z,46.38
2023-08-02T17:32:29.007Z,46.45
2023-08-02T17:34:56.751Z,46.45
2023-08-02T17:37:24.408Z,46.57
2023-08-02T17:39:55.681Z,46.60
2023-08-02T17:42:23.507Z,46.78
2023-08-02T17:44:50.873Z,46.86
2023-08-02T17:47:18.986Z,46.95
2023-08-02T17:49:46.433Z,47.12
2023-08-02T17:52:14.148Z,47.19
2023-08-02T17:54:41.507Z,47.27
2023-08-02T17:57:09.104Z,47.38
2023-08-02T17:59:36.454Z,47.31
2023-08-02T18:02:06.406Z,47.32
2023-08-02T18:04:33.799Z,47.44
2023-08-02T18:07:01.427Z,47.25
2023-08-02T18:09:28.743Z,47.56
2023-08-02T18:11:56.352Z,47.38
2023-08-02T18:14:23.709Z,47.37
2023-08-02T18:16:51.459Z,47.41
2023-08-02T18:19:18.816Z,47.36
2023-08-02T18:21:51.761Z,47.49
2023-08-02T18:24:20.532Z,47.60
2023-08-02T18:26:49.085Z,47.48
2023-08-02T18:29:16.497Z,47.96
2023-08-02T18:31:44.470Z,47.95
2023-08-02T18:34:12.738Z,47.98
2023-08-02T18:36:40.468Z,47.90
2023-08-02T18:39:09.178Z,47.92
2023-08-02T18:41:36.947Z,48.01
2023-08-02T18:44:04.465Z,48.09
2023-08-02T18:46:32.273Z,47.99
2023-08-02T18:48:59.607Z,48.16
2023-08-02T18:51:27.269Z,48.08
2023-08-02T18:53:54.724Z,48.09
2023-08-02T18:56:23.796Z,48.23
2023-08-02T18:58:52.436Z,48.32
2023-08-02T19:01:20.276Z,48.55
2023-08-02T19:03:47.793Z,48.44
2023-08-02T19:06:15.598Z,48.46
2023-08-02T19:08:45.611Z,48.52
2023-08-02T19:11:21.346Z,48.62
2023-08-02T19:13:49.413Z,48.65
2023-08-02T19:16:17.268Z,48.66
2023-08-02T19:18:44.929Z,48.68
2023-08-02T19:21:14.500Z,48.73
2023-08-02T19:23:46.351Z,48.92
2023-08-02T19:26:17.510Z,49.00
2023-08-02T19:28:45.666Z,49.21
2023-08-02T19:31:15.045Z,49.06
2023-08-02T19:33:46.183Z,49.21
2023-08-02T19:36:18.888Z,49.22
2023-08-02T19:38:46.504Z,48.97
2023-08-02T19:41:24.841Z,49.17
2023-08-02T19:43:52.247Z,49.40
2023-08-02T19:46:21.947Z,49.30
2023-08-02T19:48:49.434Z,49.30
2023-08-02T19:51:17.557Z,49.34
2023-08-02T19:53:46.001Z,49.41
2023-08-02T19:56:22.393Z,49.46
2023-08-02T19:58:50.153Z,49.46
2023-08-02T20:01:18.017Z,49.52
2023-08-02T20:03:45.463Z,49.52
2023-08-02T20:06:13.575Z,49.41
2023-08-02T20:08:41.614Z,49.66
2023-08-02T20:11:09.425Z,49.59
2023-08-02T20:13:40.120Z,49.70
2023-08-02T20:16:13.574Z,49.58
2023-08-02T20:18:41.465Z,49.57
2023-08-02T20:23:43.948Z,49.80
2023-08-02T20:26:12.528Z,49.76
2023-08-02T20:28:41.942Z,49.80
2023-08-02T20:31:19.661Z,49.82
2023-08-02T20:33:49.126Z,49.92
2023-08-02T20:36:18.401Z,49.79
2023-08-02T20:38:48.611Z,49.83
2023-08-02T20:41:21.196Z,49.92
2023-08-02T20:43:50.218Z,50.00
2023-08-02T20:46:22.932Z,49.88
2023-08-02T20:48:56.215Z,49.93
2023-08-02T20:51:24.006Z,50.02
2023-08-02T20:53:51.459Z,50.03
2023-08-02T20:56:24.257Z,49.98
2023-08-02T20:58:52.181Z,50.00
2023-08-02T21:01:19.969Z,50.08
2023-08-02T21:03:48.405Z,50.05
2023-08-02T21:06:16.989Z,50.06
2023-08-02T21:08:48.403Z,50.10
2023-08-02T21:11:16.065Z,50.18
2023-08-02T21:13:43.397Z,50.26
2023-08-02T21:16:14.807Z,50.21
2023-08-02T21:18:44.064Z,50.22
2023-08-02T21:21:13.931Z,50.19
2023-08-02T21:23:44.693Z,50.23
2023-08-02T21:26:18.396Z,50.31
2023-08-02T21:28:45.895Z,50.18
2023-08-02T21:31:16.670Z,50.37
2023-08-02T21:33:45.032Z,50.38
2023-08-02T21:36:18.428Z,50.37
2023-08-02T21:38:45.874Z,50.40
2023-08-02T21:41:13.551Z,50.52
2023-08-02T21:43:43.214Z,50.52
2023-08-02T21:46:13.748Z,50.45
2023-08-02T21:48:49.840Z,50.48
2023-08-02T21:51:20.506Z,50.42
2023-08-02T21:53:49.636Z,50.67
2023-08-02T21:56:22.811Z,50.74
2023-08-02T21:59:09.773Z,50.72
2023-08-02T22:01:37.410Z,50.80
2023-08-02T22:04:06.944Z,50.95
2023-08-02T22:06:35.054Z,50.80
2023-08-02T22:09:02.512Z,50.94
2023-08-02T22:11:30.159Z,51.04
2023-08-02T22:13:57.638Z,50.97
2023-08-02T22:16:25.335Z,51.11
2023-08-02T22:18:52.957Z,51.14
2023-08-02T22:21:22.363Z,51.15
2023-08-02T22:23:50.164Z,51.25
2023-08-02T22:26:17.926Z,51.26
2023-08-02T22:28:45.270Z,51.38
2023-08-02T22:31:13.002Z,51.34
2023-08-02T22:33:40.399Z,51.42
2023-08-02T22:36:08.027Z,51.42
2023-08-02T22:41:05.873Z,51.50
2023-08-02T22:43:33.229Z,51.43
2023-08-02T22:46:01.030Z,51.47
2023-08-02T22:50:59.166Z,51.71
2023-08-02T22:53:26.644Z,51.49
2023-08-02T22:55:54.305Z,51.60
2023-08-02T22:58:21.705Z,51.80
2023-08-02T23:00:49.420Z,51.75
2023-08-02T23:03:36.569Z,51.84
2023-08-02T23:06:05.479Z,51.81
2023-08-02T23:08:37.540Z,51.74
2023-08-02T23:11:06.621Z,51.42
2023-08-02T23:13:34.175Z,51.86
2023-08-02T23:16:03.084Z,51.89
2023-08-02T23:18:30.843Z,51.80
2023-08-02T23:21:02.852Z,51.71
2023-08-02T23:23:32.854Z,51.94
2023-08-02T23:26:03.744Z,51.90
2023-08-02T23:28:33.161Z,51.79
2023-08-02T23:31:06.367Z,52.09
2023-08-02T23:33:33.797Z,52.07
2023-08-02T23:36:01.508Z,52.16
2023-08-02T23:38:28.914Z,52.23
2023-08-02T23:40:57.795Z,52.31
2023-08-02T23:43:25.447Z,52.23
2023-08-02T23:45:53.247Z,52.16
2023-08-02T23:48:20.608Z,52.24
2023-08-02T23:50:48.216Z,52.34
2023-08-02T23:53:15.584Z,52.29
2023-08-02T23:55:43.435Z,52.44
2023-08-02T23:58:10.797Z,52.32
